Time;durP1;ratioP1;P1;durP2;ratioP2;P2;SDS_P1;SDS_P2;PMS_P1;PMS_P2;Temp;Humidity;BMP_temperature;BMP_pressure;BME280_temperature;BME280_humidity;BME280_pressure;Samples;Min_cycle;Max_cycle;Signal;HPM_P1;HPM_P2
2022/03/31 00:08:29;;;;;;;13.43;9.67;;;9.50;76.40;;;;;;20836599;28;20235;-64
2022/03/31 00:18:31;;;;;;;19.97;9.47;;;9.50;77.10;;;;;;20832518;28;20691;-64
2022/03/31 00:28:33;;;;;;;12.50;9.53;;;9.50;76.50;;;;;;20832471;28;20238;-64
2022/03/31 00:38:35;;;;;;;14.27;9.80;;;9.50;77.20;;;;;;20834084;28;20202;-65
2022/03/31 00:48:37;;;;;;;15.67;10.53;;;9.40;76.80;;;;;;20832924;28;20673;-64
2022/03/31 00:58:39;;;;;;;14.90;10.53;;;9.40;76.90;;;;;;20832253;28;20207;-65
2022/03/31 01:08:42;;;;;;;14.17;10.13;;;9.30;76.90;;;;;;20831379;28;20612;-65
2022/03/31 01:18:43;;;;;;;17.83;10.70;;;9.30;77.50;;;;;;20831026;28;20222;-65
2022/03/31 01:28:45;;;;;;;14.47;10.50;;;9.20;77.00;;;;;;20830082;28;20246;-64
2022/03/31 01:38:47;;;;;;;15.00;10.33;;;9.20;77.30;;;;;;20830288;28;20666;-65
2022/03/31 01:48:51;;;;;;;16.20;10.93;;;9.10;77.30;;;;;;20828879;28;20325;-65
2022/03/31 01:58:53;;;;;;;17.00;11.83;;;9.10;77.50;;;;;;20829034;28;20297;-65
2022/03/31 02:08:56;;;;;;;18.07;11.87;;;9.00;77.60;;;;;;20828643;28;20241;-65
2022/03/31 02:18:58;;;;;;;15.40;11.37;;;9.10;77.20;;;;;;20827473;28;20212;-65
2022/03/31 02:29:00;;;;;;;15.50;11.10;;;9.20;77.30;;;;;;20824174;28;20321;-65
2022/03/31 02:39:02;;;;;;;15.20;11.57;;;9.20;77.70;;;;;;20834515;28;20217;-65
2022/03/31 02:49:04;;;;;;;16.63;12.10;;;9.30;76.70;;;;;;20843148;28;20252;-65
2022/03/31 02:59:07;;;;;;;17.73;12.60;;;9.20;76.80;;;;;;20856345;28;20207;-65
2022/03/31 03:09:08;;;;;;;20.17;13.00;;;9.20;76.50;;;;;;20841832;28;20654;-65
2022/03/31 03:19:10;;;;;;;16.37;12.30;;;9.20;77.30;;;;;;20841095;28;20678;-65
2022/03/31 03:29:12;;;;;;;18.43;13.63;;;9.20;76.40;;;;;;20839304;28;20239;-65
2022/03/31 03:39:14;;;;;;;18.50;13.87;;;9.10;76.40;;;;;;20838993;28;20298;-65
2022/03/31 03:49:16;;;;;;;19.40;13.30;;;9.10;76.30;;;;;;20837412;28;20333;-65
2022/03/31 03:59:18;;;;;;;17.90;13.50;;;9.10;77.00;;;;;;20837150;28;20220;-65
2022/03/31 04:09:20;;;;;;;21.07;14.53;;;9.10;77.00;;;;;;20836236;28;20609;-65
2022/03/31 04:19:22;;;;;;;19.27;13.43;;;9.10;77.20;;;;;;20841145;28;20221;-65
2022/03/31 04:29:26;;;;;;;20.20;14.03;;;9.10;77.20;;;;;;20913647;28;20237;-65
2022/03/31 04:39:28;;;;;;;22.60;15.13;;;9.10;76.70;;;;;;20915994;28;20244;-65
2022/03/31 04:49:29;;;;;;;21.60;15.37;;;9.10;76.60;;;;;;20915246;28;20252;-64
2022/03/31 04:59:31;;;;;;;20.23;14.13;;;9.10;76.60;;;;;;20914216;28;20210;-65
2022/03/31 05:09:33;;;;;;;20.67;14.27;;;9.10;77.30;;;;;;20913200;28;20739;-65
2022/03/31 05:19:35;;;;;;;22.33;13.97;;;9.00;76.60;;;;;;20913474;28;20205;-65
2022/03/31 05:29:36;;;;;;;22.67;14.43;;;9.00;77.00;;;;;;20912150;28;20757;-64
2022/03/31 05:39:38;;;;;;;24.57;15.70;;;8.90;77.10;;;;;;20909213;28;20207;-69
2022/03/31 05:49:40;;;;;;;26.47;15.77;;;9.10;77.50;;;;;;20907442;28;20619;-67
2022/03/31 05:59:42;;;;;;;23.27;14.70;;;9.10;77.40;;;;;;20908347;28;20210;-68
2022/03/31 06:09:43;;;;;;;23.77;15.00;;;9.20;77.40;;;;;;20909749;28;20767;-68
2022/03/31 06:19:45;;;;;;;23.83;16.20;;;9.10;77.40;;;;;;20918901;28;20265;-67
2022/03/31 06:29:49;;;;;;;26.50;16.93;;;9.10;77.50;;;;;;20840027;28;20718;-68
2022/03/31 06:39:50;;;;;;;24.90;16.40;;;9.20;77.80;;;;;;20906631;28;20305;-75
2022/03/31 06:49:52;;;;;;;26.03;17.53;;;9.20;78.50;;;;;;20924197;28;20242;-63
2022/03/31 06:59:54;;;;;;;25.10;15.97;;;9.20;78.10;;;;;;20923160;28;20306;-67
2022/03/31 07:09:57;;;;;;;23.20;15.40;;;9.20;78.00;;;;;;20922371;28;20249;-65
2022/03/31 07:19:59;;;;;;;22.80;16.47;;;9.20;78.40;;;;;;20922394;28;20293;-66
2022/03/31 07:30:01;;;;;;;22.90;17.03;;;9.20;79.00;;;;;;20918586;28;20329;-64
2022/03/31 07:40:03;;;;;;;27.10;16.70;;;9.30;78.70;;;;;;20919577;28;20211;-61
2022/03/31 07:50:09;;;;;;;22.93;16.07;;;9.50;79.00;;;;;;20919485;28;20329;-65
2022/03/31 08:00:12;;;;;;;24.37;16.27;;;9.50;79.40;;;;;;20918526;28;20302;-65
2022/03/31 08:10:14;;;;;;;23.87;17.03;;;9.30;79.20;;;;;;20918176;28;20330;-64
2022/03/31 08:20:17;;;;;;;34.10;19.17;;;9.40;80.00;;;;;;20913085;28;20227;-64
2022/03/31 08:30:20;;;;;;;25.03;16.77;;;9.50;79.70;;;;;;20830587;28;20720;-67
2022/03/31 08:40:22;;;;;;;25.47;16.83;;;9.50;79.90;;;;;;20863230;28;20620;-63
2022/03/31 08:50:23;;;;;;;23.67;16.90;;;9.60;80.40;;;;;;20914270;28;20825;-66
2022/03/31 09:00:25;;;;;;;24.00;17.20;;;9.60;79.90;;;;;;20917919;28;20211;-68
2022/03/31 09:10:28;;;;;;;26.10;16.90;;;9.80;80.10;;;;;;20914497;28;20781;-65
2022/03/31 09:20:39;;;;;;;32.20;20.60;;;9.80;80.70;;;;;;20912652;28;20242;-69
2022/03/31 09:30:52;;;;;;;28.33;17.93;;;9.90;80.60;;;;;;20911981;28;20252;-69
2022/03/31 09:40:55;;;;;;;23.50;16.37;;;10.10;79.50;;;;;;20910971;28;20707;-62
2022/03/31 09:50:57;;;;;;;22.67;15.40;;;10.20;78.50;;;;;;20910761;28;20258;-64
2022/03/31 10:00:59;;;;;;;29.07;16.27;;;10.20;78.30;;;;;;20909873;28;20204;-64
2022/03/31 10:11:01;;;;;;;49.73;33.03;;;10.30;78.80;;;;;;20910238;28;20705;-64
2022/03/31 10:21:03;;;;;;;119.97;62.13;;;10.40;78.30;;;;;;20908257;28;20214;-67
2022/03/31 10:31:09;;;;;;;26.00;18.23;;;10.30;78.70;;;;;;20905378;28;20804;-68
2022/03/31 10:41:13;;;;;;;24.23;15.37;;;10.70;78.40;;;;;;20909541;28;20217;-71
2022/03/31 10:51:14;;;;;;;20.30;14.87;;;10.70;78.20;;;;;;20908128;28;20703;-72
2022/03/31 11:01:17;;;;;;;21.33;14.63;;;10.80;78.70;;;;;;20916424;28;20206;-62
2022/03/31 11:11:24;;;;;;;20.63;14.93;;;10.80;78.50;;;;;;20921664;28;20270;-62
2022/03/31 11:21:33;;;;;;;20.07;14.90;;;11.00;77.70;;;;;;20922026;28;20303;-62
2022/03/31 11:31:35;;;;;;;22.97;15.27;;;11.00;78.60;;;;;;20921083;28;20327;-64
2022/03/31 11:41:39;;;;;;;34.47;20.73;;;11.00;77.70;;;;;;20919956;28;20204;-66
2022/03/31 11:51:59;;;;;;;19.80;13.73;;;10.90;78.00;;;;;;20918223;28;20236;-63
2022/03/31 12:02:11;;;;;;;31.80;22.67;;;10.80;77.30;;;;;;20919388;28;20204;-73
2022/03/31 12:12:14;;;;;;;43.57;23.87;;;10.90;78.00;;;;;;20918137;28;20598;-67
2022/03/31 12:22:16;;;;;;;33.63;21.57;;;10.90;78.00;;;;;;20914321;28;20207;-67
2022/03/31 12:32:18;;;;;;;20.97;13.83;;;10.80;77.70;;;;;;20913432;28;20241;-60
2022/03/31 12:42:20;;;;;;;18.90;13.77;;;10.90;77.00;;;;;;20856676;28;20242;-59
2022/03/31 12:52:22;;;;;;;21.17;14.53;;;10.90;77.10;;;;;;20882723;28;20247;-59
2022/03/31 13:02:35;;;;;;;42.80;25.80;;;10.90;77.20;;;;;;20915246;28;20211;-59
2022/03/31 13:12:37;;;;;;;39.97;28.50;;;10.80;77.10;;;;;;20914980;28;20247;-62
2022/03/31 13:22:40;;;;;;;18.90;13.37;;;10.80;77.20;;;;;;20911744;28;20298;-64
2022/03/31 13:32:43;;;;;;;32.10;14.20;;;10.80;77.10;;;;;;20911512;28;20240;-70
2022/03/31 13:42:45;;;;;;;20.73;13.20;;;10.80;77.80;;;;;;20910277;28;20311;-69
2022/03/31 13:53:43;;;;;;;24.10;15.70;;;10.80;77.70;;;;;;20908257;28;20239;-69
2022/03/31 14:03:09;;;;;;;20.10;14.10;;;10.80;77.90;;;;;;20910444;28;20299;-75
2022/03/31 14:13:11;;;;;;;24.30;17.50;;;10.80;77.10;;;;;;20909201;28;20242;-67
2022/03/31 14:23:13;;;;;;;21.53;13.80;;;10.80;77.80;;;;;;20910104;28;20214;-65
2022/03/31 14:33:14;;;;;;;34.92;17.55;;;10.90;77.80;;;;;;20914152;28;21002;-63
2022/03/31 14:43:16;;;;;;;22.03;16.47;;;11.00;78.10;;;;;;20920365;28;20480;-65
2022/03/31 14:53:18;;;;;;;20.57;14.20;;;11.50;77.20;;;;;;20925451;28;20489;-68
2022/03/31 15:03:20;;;;;;;21.53;14.33;;;11.00;77.50;;;;;;20924420;28;20204;-66
2022/03/31 15:23:43;;;;;;;21.00;14.30;;;11.10;78.00;;;;;;20920849;28;20234;-65
2022/03/31 15:33:46;;;;;;;24.67;15.53;;;11.10;78.50;;;;;;20918871;28;20657;-65
2022/03/31 15:43:48;;;;;;;22.10;15.20;;;11.00;76.90;;;;;;20920101;28;20283;-65
2022/03/31 15:53:50;;;;;;;25.57;16.20;;;10.90;76.50;;;;;;20920010;28;20236;-63
2022/03/31 16:03:53;;;;;;;24.03;15.33;;;10.90;76.50;;;;;;20919614;28;20617;-66
2022/03/31 16:13:55;;;;;;;25.63;16.70;;;10.80;77.30;;;;;;20918527;28;20235;-64
2022/03/31 16:23:59;;;;;;;23.03;15.30;;;10.70;77.40;;;;;;20917484;28;20222;-64
2022/03/31 16:34:03;;;;;;;25.33;15.00;;;10.60;77.50;;;;;;20915894;28;20250;-67
2022/03/31 16:44:05;;;;;;;21.10;14.87;;;10.50;77.60;;;;;;20915184;28;20212;-63
2022/03/31 16:54:07;;;;;;;22.93;15.40;;;10.40;77.30;;;;;;20914164;28;20239;-63
2022/03/31 17:04:22;;;;;;;24.70;15.50;;;10.40;77.50;;;;;;20984252;28;20563;-64
2022/03/31 17:14:24;;;;;;;23.70;14.87;;;10.30;78.40;;;;;;20982701;28;20206;-66
2022/03/31 17:24:27;;;;;;;24.47;15.33;;;10.40;78.10;;;;;;20983430;28;20298;-69
2022/03/31 17:34:29;;;;;;;24.97;14.90;;;10.30;78.40;;;;;;20980794;28;20302;-64
2022/03/31 17:44:32;;;;;;;21.80;14.47;;;10.30;79.10;;;;;;20978363;28;20222;-64
2022/03/31 17:54:34;;;;;;;25.73;14.23;;;10.20;79.50;;;;;;20977612;28;20208;-63
2022/03/31 18:04:38;;;;;;;18.30;12.67;;;10.10;79.00;;;;;;20978243;28;20726;-62
2022/03/31 18:14:40;;;;;;;18.57;12.70;;;10.10;78.80;;;;;;20928255;28;20213;-65
2022/03/31 18:24:42;;;;;;;20.63;12.77;;;10.00;79.10;;;;;;20921126;28;20306;-65
2022/03/31 18:34:44;;;;;;;18.50;13.13;;;9.90;79.90;;;;;;20919351;28;20205;-66
2022/03/31 18:44:46;;;;;;;18.80;13.13;;;9.90;80.10;;;;;;20918116;28;20217;-66
2022/03/31 18:54:49;;;;;;;17.13;12.43;;;9.90;81.10;;;;;;20917699;28;20247;-70
2022/03/31 19:04:51;;;;;;;19.90;13.20;;;9.80;79.90;;;;;;20917450;28;20225;-67
2022/03/31 19:14:53;;;;;;;18.80;12.60;;;9.80;80.50;;;;;;20916603;28;20258;-67
2022/03/31 19:25:00;;;;;;;17.20;12.13;;;9.60;79.80;;;;;;20914915;28;20214;-66
2022/03/31 19:35:03;;;;;;;18.10;12.20;;;9.50;79.70;;;;;;20915303;28;20237;-64
2022/03/31 19:45:05;;;;;;;17.60;11.47;;;9.30;79.80;;;;;;20913582;28;20264;-65
2022/03/31 19:55:08;;;;;;;15.57;10.67;;;9.20;80.10;;;;;;20913146;28;20609;-64
2022/03/31 20:05:10;;;;;;;13.70;10.27;;;9.20;80.70;;;;;;20912974;28;20223;-64
2022/03/31 20:15:12;;;;;;;13.20;9.83;;;9.00;81.10;;;;;;20911662;28;20244;-65
2022/03/31 20:25:14;;;;;;;12.93;9.50;;;9.00;81.10;;;;;;20915607;28;20626;-65
2022/03/31 20:35:16;;;;;;;12.23;9.67;;;8.80;80.90;;;;;;20914297;28;20762;-65
2022/03/31 20:45:18;;;;;;;11.53;9.30;;;8.70;82.00;;;;;;20910168;28;20669;-66
2022/03/31 20:55:20;;;;;;;14.07;10.00;;;;;;;;;;20909621;28;20248;-66
2022/03/31 21:05:22;;;;;;;13.80;10.70;;;8.60;82.80;;;;;;20909839;28;20231;-65
2022/03/31 21:15:24;;;;;;;13.23;10.23;;;8.60;83.10;;;;;;20908598;28;20229;-65
2022/03/31 21:25:27;;;;;;;15.53;11.20;;;8.50;84.10;;;;;;20908800;28;20209;-65
2022/03/31 21:35:29;;;;;;;18.93;13.00;;;8.60;84.50;;;;;;20908527;28;20242;-66
2022/03/31 21:45:31;;;;;;;18.37;13.47;;;8.60;85.60;;;;;;20914492;28;20206;-65
2022/03/31 21:55:34;;;;;;;22.77;15.73;;;8.50;86.10;;;;;;20922999;28;20264;-65
2022/03/31 22:05:56;;;;;;;16.93;13.53;;;8.30;86.20;;;;;;20923024;28;20239;-64
2022/03/31 22:15:58;;;;;;;17.27;13.47;;;8.30;87.40;;;;;;20921127;28;20259;-63
2022/03/31 22:26:00;;;;;;;18.43;13.13;;;8.30;87.50;;;;;;20921544;28;20221;-64
2022/03/31 22:36:04;;;;;;;17.10;12.67;;;8.30;87.60;;;;;;20920514;28;20242;-64
2022/03/31 22:46:11;;;;;;;16.13;12.47;;;8.20;87.40;;;;;;20918913;28;20205;-67
2022/03/31 22:56:15;;;;;;;16.53;12.20;;;8.10;86.90;;;;;;20919979;28;20330;-64
2022/03/31 23:06:21;;;;;;;15.50;11.60;;;8.00;85.80;;;;;;20917808;28;20572;-64
2022/03/31 23:16:24;;;;;;;15.23;11.60;;;8.00;86.50;;;;;;20916726;28;20250;-64
2022/03/31 23:26:26;;;;;;;16.53;12.10;;;8.00;85.40;;;;;;20918153;28;20729;-64
2022/03/31 23:36:28;;;;;;;15.73;12.10;;;8.00;85.20;;;;;;20917288;28;20298;-63
2022/03/31 23:46:29;;;;;;;15.13;11.70;;;7.80;85.20;;;;;;20916843;28;20290;-65
2022/03/31 23:56:31;;;;;;;17.93;12.70;;;7.70;84.70;;;;;;20915368;28;20261;-65
